createdAt,value
2023-01-19T00:04:13.572Z,42.63
2023-01-19T00:09:05.382Z,39.78
2023-01-19T00:13:57.862Z,40.30
2023-01-19T00:18:51.687Z,41.22
2023-01-19T00:23:47.264Z,38.00
2023-01-19T00:28:38.962Z,40.08
2023-01-19T00:33:30.694Z,42.10
2023-01-19T00:38:22.364Z,40.17
2023-01-19T00:43:14.012Z,40.90
2023-01-19T00:48:06.376Z,42.55
2023-01-19T00:53:01.497Z,41.10
2023-01-19T00:57:53.346Z,45.42
2023-01-19T01:02:45.529Z,41.92
2023-01-19T01:07:41.764Z,42.78
2023-01-19T01:12:33.517Z,42.72
2023-01-19T01:17:25.263Z,40.65
2023-01-19T01:22:17.016Z,43.88
2023-01-19T01:27:08.677Z,42.65
2023-01-19T01:32:00.295Z,45.42
2023-01-19T01:36:51.951Z,47.60
2023-01-19T01:41:43.709Z,42.42
2023-01-19T01:46:36.317Z,43.00
2023-01-19T01:51:50.861Z,42.50
2023-01-19T01:56:48.968Z,43.63
2023-01-19T02:01:59.529Z,42.88
2023-01-19T02:07:10.227Z,41.80
2023-01-19T02:12:20.715Z,41.83
2023-01-19T02:17:13.243Z,39.55
2023-01-19T02:22:24.954Z,39.83
2023-01-19T02:27:17.252Z,38.08
2023-01-19T02:32:09.270Z,34.47
2023-01-19T02:37:06.710Z,33.20
2023-01-19T02:42:06.135Z,30.45
2023-01-19T02:46:57.891Z,29.58
2023-01-19T02:51:50.301Z,29.48
2023-01-19T02:57:10.740Z,28.75
2023-01-19T03:02:24.028Z,29.13
2023-01-19T03:07:52.211Z,29.60
2023-01-19T03:12:50.227Z,27.92
2023-01-19T03:17:44.762Z,30.63
2023-01-19T03:22:36.615Z,30.70
2023-01-19T03:27:40.896Z,30.42
2023-01-19T03:32:37.217Z,29.90
2023-01-19T03:37:31.009Z,30.95
2023-01-19T03:42:25.260Z,26.73
2023-01-19T03:47:17.964Z,25.25
2023-01-19T03:52:09.990Z,23.42
2023-01-19T03:57:01.763Z,22.33
2023-01-19T04:01:53.617Z,22.13
2023-01-19T04:06:45.455Z,22.05
2023-01-19T04:11:37.211Z,19.80
2023-01-19T04:16:29.051Z,19.75
2023-01-19T04:21:20.819Z,19.58
2023-01-19T04:26:12.781Z,18.70
2023-01-19T04:31:05.976Z,17.02
2023-01-19T04:35:58.148Z,16.27
2023-01-19T04:40:50.830Z,17.33
2023-01-19T04:45:44.807Z,14.80
2023-01-19T04:50:36.433Z,14.75
2023-01-19T04:55:28.132Z,14.10
2023-01-19T05:00:20.893Z,14.55
2023-01-19T05:05:13.145Z,14.23
2023-01-19T05:10:06.320Z,13.38
2023-01-19T05:14:58.012Z,11.82
2023-01-19T05:19:49.676Z,10.10
2023-01-19T05:24:41.388Z,9.13
2023-01-19T05:29:33.279Z,8.95
2023-01-19T05:34:24.929Z,9.82
2023-01-19T05:39:16.677Z,7.82
2023-01-19T05:44:09.724Z,7.38
2023-01-19T05:49:04.226Z,6.25
2023-01-19T05:53:55.929Z,6.07
2023-01-19T05:58:47.660Z,5.45
2023-01-19T06:03:39.945Z,5.03
2023-01-19T06:08:31.572Z,4.47
2023-01-19T06:13:23.220Z,4.80
2023-01-19T06:18:15.012Z,4.30
2023-01-19T06:23:06.910Z,4.25
2023-01-19T06:27:58.585Z,4.97
2023-01-19T06:32:50.242Z,4.40
2023-01-19T06:37:41.910Z,4.70
2023-01-19T06:42:33.702Z,5.28
2023-01-19T06:47:25.341Z,5.18
2023-01-19T06:52:18.418Z,5.10
2023-01-19T06:57:11.883Z,4.90
2023-01-19T07:02:25.821Z,5.18
2023-01-19T07:07:16.740Z,5.68
2023-01-19T07:12:09.382Z,5.60
2023-01-19T07:17:02.189Z,7.35
2023-01-19T07:21:53.833Z,8.18
2023-01-19T07:26:45.503Z,5.80
2023-01-19T07:31:37.314Z,7.78
2023-01-19T07:36:29.051Z,7.18
2023-01-19T07:41:20.864Z,7.13
2023-01-19T07:46:12.572Z,8.40
2023-01-19T07:51:05.881Z,9.90
2023-01-19T07:55:58.099Z,8.00
2023-01-19T08:00:50.501Z,10.20
2023-01-19T08:05:42.368Z,7.82
2023-01-19T08:10:34.831Z,8.32
2023-01-19T08:15:27.055Z,7.55
2023-01-19T08:20:19.180Z,9.73
2023-01-19T08:25:10.905Z,6.53
2023-01-19T08:30:02.728Z,6.43
2023-01-19T08:34:54.427Z,8.18
2023-01-19T08:39:46.122Z,8.00
2023-01-19T08:44:46.706Z,6.07
2023-01-19T08:49:45.100Z,7.50
2023-01-19T08:54:36.984Z,8.68
2023-01-19T08:59:28.697Z,8.73
2023-01-19T09:04:20.352Z,14.75
2023-01-19T09:09:11.998Z,11.18
2023-01-19T09:14:04.013Z,11.00
2023-01-19T09:18:55.690Z,10.55
2023-01-19T09:23:49.155Z,11.85
2023-01-19T09:28:40.839Z,10.25
2023-01-19T09:33:32.584Z,10.95
2023-01-19T09:38:25.884Z,9.90
2023-01-19T09:43:59.941Z,9.90
2023-01-19T09:48:58.764Z,9.52
2023-01-19T09:53:56.533Z,8.82
2023-01-19T09:58:51.013Z,7.93
2023-01-19T10:03:42.744Z,9.18
2023-01-19T10:08:47.105Z,7.43
2023-01-19T10:13:49.807Z,8.50
2023-01-19T10:18:51.573Z,7.88
2023-01-19T10:24:01.189Z,6.65
2023-01-19T10:28:57.738Z,7.65
2023-01-19T10:33:53.262Z,6.85
2023-01-19T10:38:46.855Z,7.28
2023-01-19T10:43:42.156Z,6.60
2023-01-19T10:48:42.053Z,7.03
2023-01-19T10:53:33.962Z,8.48
2023-01-19T10:58:34.886Z,8.98
2023-01-19T11:03:31.964Z,10.10
2023-01-19T11:08:30.372Z,9.02
2023-01-19T11:13:22.130Z,8.98
2023-01-19T11:18:43.483Z,8.32
2023-01-19T11:23:43.013Z,7.80
2023-01-19T11:28:39.681Z,7.70
2023-01-19T11:33:37.407Z,7.68
2023-01-19T11:38:29.109Z,7.20
2023-01-19T11:43:23.126Z,7.22
2023-01-19T11:48:23.846Z,7.22
2023-01-19T11:53:33.969Z,6.90
2023-01-19T11:58:26.896Z,7.40
2023-01-19T12:03:49.392Z,7.00
2023-01-19T12:09:04.586Z,7.45
2023-01-19T12:13:56.275Z,7.70
2023-01-19T12:18:56.254Z,7.53
2023-01-19T12:24:13.716Z,7.43
2023-01-19T12:29:28.864Z,7.68
2023-01-19T12:34:24.961Z,7.07
2023-01-19T12:39:20.440Z,8.98
2023-01-19T12:44:12.176Z,8.60
2023-01-19T12:49:24.518Z,7.97
2023-01-19T13:00:21.572Z,10.52
2023-01-19T13:05:17.879Z,7.53
2023-01-19T13:10:47.195Z,7.82
2023-01-19T13:15:39.303Z,8.10
2023-01-19T13:20:54.459Z,7.78
2023-01-19T13:26:14.904Z,7.85
2023-01-19T13:31:07.316Z,8.45
2023-01-19T13:35:59.090Z,7.97
2023-01-19T13:40:52.281Z,8.27
2023-01-19T13:45:50.696Z,9.95
2023-01-19T13:51:00.513Z,10.30
2023-01-19T13:56:07.649Z,10.75
2023-01-19T14:00:59.364Z,9.73
2023-01-19T14:05:54.933Z,10.25
2023-01-19T14:11:02.257Z,9.95
2023-01-19T14:15:57.046Z,8.77
2023-01-19T14:21:01.936Z,9.73
2023-01-19T14:25:53.574Z,9.90
2023-01-19T14:31:18.326Z,9.52
2023-01-19T14:36:33.361Z,12.88
2023-01-19T14:41:33.930Z,10.93
2023-01-19T14:46:26.257Z,15.30
2023-01-19T14:51:23.793Z,13.73
2023-01-19T14:56:26.163Z,12.27
2023-01-19T15:01:17.903Z,12.40
2023-01-19T15:06:19.091Z,9.00
2023-01-19T15:11:16.264Z,10.15
2023-01-19T15:16:09.105Z,9.98
2023-01-19T15:21:03.054Z,10.18
2023-01-19T15:25:59.837Z,9.95
2023-01-19T15:30:53.849Z,9.38
2023-01-19T15:35:45.540Z,9.38
2023-01-19T15:40:37.358Z,10.32
2023-01-19T15:45:41.631Z,11.00
2023-01-19T15:50:35.751Z,9.65
2023-01-19T15:55:27.608Z,8.75
2023-01-19T16:00:19.627Z,10.15
2023-01-19T16:05:11.849Z,10.45
2023-01-19T16:10:06.344Z,10.95
2023-01-19T16:14:58.134Z,10.38
2023-01-19T16:19:49.748Z,12.93
2023-01-19T16:24:41.384Z,9.98
2023-01-19T16:29:33.125Z,8.90
2023-01-19T16:34:25.427Z,9.18
2023-01-19T16:39:17.386Z,9.32
2023-01-19T16:44:11.336Z,9.65
2023-01-19T16:49:14.930Z,9.77
2023-01-19T16:54:06.921Z,17.85
2023-01-19T16:58:59.248Z,34.03
2023-01-19T17:03:50.904Z,25.23
2023-01-19T17:08:42.527Z,12.85
2023-01-19T17:13:34.210Z,13.60
2023-01-19T17:18:25.946Z,12.32
2023-01-19T17:23:17.644Z,15.30
2023-01-19T17:28:09.384Z,14.77
2023-01-19T17:33:01.024Z,13.25
2023-01-19T17:37:54.796Z,15.88
2023-01-19T17:42:46.460Z,12.50
2023-01-19T17:47:38.694Z,11.32
2023-01-19T17:52:30.402Z,11.85
2023-01-19T17:57:22.069Z,14.25
2023-01-19T18:02:13.809Z,13.63
2023-01-19T18:07:06.232Z,12.57
2023-01-19T18:11:57.989Z,15.23
2023-01-19T18:16:49.652Z,13.68
2023-01-19T18:21:41.498Z,14.18
2023-01-19T18:26:34.535Z,13.52
2023-01-19T18:31:27.234Z,14.52
2023-01-19T18:36:18.989Z,13.32
2023-01-19T18:41:15.969Z,15.27
2023-01-19T18:46:08.394Z,14.57
2023-01-19T18:51:04.777Z,13.45
2023-01-19T18:55:59.007Z,15.68
2023-01-19T19:00:51.082Z,15.30
2023-01-19T19:05:42.841Z,14.95
2023-01-19T19:10:35.162Z,14.75
2023-01-19T19:15:27.249Z,14.55
2023-01-19T19:20:19.574Z,14.88
2023-01-19T19:25:11.260Z,17.23
2023-01-19T19:30:03.734Z,21.95
2023-01-19T19:34:59.014Z,18.42
2023-01-19T19:39:50.671Z,16.20
2023-01-19T19:44:42.619Z,16.38
2023-01-19T19:49:34.323Z,17.50
2023-01-19T19:54:26.148Z,18.88
2023-01-19T19:59:18.410Z,17.83
2023-01-19T20:04:12.165Z,18.90
2023-01-19T20:09:06.338Z,20.60
2023-01-19T20:13:58.002Z,21.38
2023-01-19T20:18:51.581Z,21.00
2023-01-19T20:23:44.281Z,29.38
2023-01-19T20:28:36.490Z,22.23
2023-01-19T20:33:28.152Z,18.52
2023-01-19T20:38:19.783Z,21.60
2023-01-19T20:43:11.531Z,21.45
2023-01-19T20:48:03.152Z,21.23
2023-01-19T20:52:54.807Z,23.15
2023-01-19T20:57:46.498Z,22.92
2023-01-19T21:02:38.201Z,19.48
2023-01-19T21:07:29.884Z,22.95
2023-01-19T21:12:23.165Z,20.70
2023-01-19T21:17:14.804Z,21.98
2023-01-19T21:22:06.466Z,23.15
2023-01-19T21:26:58.138Z,22.83
2023-01-19T21:31:49.830Z,21.52
2023-01-19T21:36:41.510Z,32.75
2023-01-19T21:41:34.859Z,28.98
2023-01-19T21:46:29.283Z,21.08
2023-01-19T21:51:21.119Z,20.30
2023-01-19T21:56:13.177Z,30.10
2023-01-19T22:01:09.731Z,26.17
2023-01-19T22:06:06.101Z,22.50
2023-01-19T22:11:05.028Z,39.78
2023-01-19T22:16:04.369Z,30.05
2023-01-19T22:20:56.078Z,25.02
2023-01-19T22:25:47.746Z,23.15
2023-01-19T22:30:39.499Z,27.98
2023-01-19T22:35:31.196Z,23.38
2023-01-19T22:40:22.881Z,20.05
2023-01-19T22:45:15.510Z,19.73
2023-01-19T22:50:08.530Z,21.67
2023-01-19T22:55:00.210Z,23.63
2023-01-19T22:59:51.841Z,20.10
2023-01-19T23:04:43.531Z,21.13
2023-01-19T23:09:37.026Z,19.95
2023-01-19T23:14:29.439Z,19.05
2023-01-19T23:19:21.920Z,21.20
2023-01-19T23:24:13.598Z,20.75
2023-01-19T23:29:12.220Z,20.40
2023-01-19T23:38:59.583Z,18.95
2023-01-19T23:43:52.328Z,20.13
2023-01-19T23:48:44.287Z,20.65
2023-01-19T23:53:36.388Z,20.05
2023-01-19T23:58:28.097Z,19.52
